Latest Weather Observations for Lismore Airport

IDN60801

Issued at 11:02 pm EDT Monday 27 March 2017 (issued every 30 minutes, with the page automatically refreshed every 10 minutes)

About weather observations | Map of weather stations | Latest weather observations for NSW | Other Formats
Station Details ID: 058214 Name: LISMORE AIRPORT AWS Lat: -28.83 Lon: 153.26 Height: 9.21 m
Data from the previous 72 hours. | See also: Recent months at Lismore Airport
Date/Time
EDT
Temp
°C
App
Temp
°C
Dew
Point
°C
Rel
Hum
%
Delta-T
°C
Wind Press
QNH
hPa
Press
MSL
hPa
Rain since
9am
mm
Dir  Spd
km/h
Gust
km/h
Spd
kts
Gust
kts
27/11:00pm 20.9 22.2 19.4 91 0.9 N 11 13 6 7 1014.6 1014.6 0.0
27/10:30pm 21.2 22.7 19.7 91 1.0 N 11 13 6 7 1014.8 1014.8 0.0
27/10:00pm 21.2 23.0 19.5 90 1.1 NNE 9 11 5 6 1015.0 1015.0 0.0
27/09:30pm 21.5 23.7 19.6 89 1.2 NNE 7 13 4 7 1015.1 1015.1 0.0
27/09:00pm 22.4 24.3 19.8 85 1.7 NNE 9 13 5 7 1015.0 1015.0 0.0
27/08:30pm 22.6 24.5 19.8 84 1.8 NE 9 13 5 7 1014.7 1014.7 0.0
27/08:00pm 23.0 24.5 19.8 82 2.1 ENE 11 17 6 9 1014.5 1014.5 0.0
27/07:30pm 23.5 24.7 20.0 81 2.3 ENE 13 20 7 11 1014.1 1014.1 0.0
27/07:00pm 23.9 25.1 19.8 78 2.6 ENE 13 28 7 15 1013.8 1013.8 0.0
27/06:30pm 24.4 25.7 20.1 77 2.8 E 13 24 7 13 1013.3 1013.3 0.0
27/06:00pm 25.1 26.0 20.1 74 3.2 ENE 15 22 8 12 1013.2 1013.2 0.0
27/05:30pm 25.6 26.9 20.2 72 3.5 E 13 19 7 10 1013.1 1013.1 0.0
27/05:00pm 25.8 27.2 20.4 72 3.5 E 13 19 7 10 1013.2 1013.2 0.0
27/04:30pm 26.1 27.0 20.9 73 3.4 E 17 24 9 13 1013.0 1013.0 0.0
27/04:00pm 27.7 29.5 20.3 64 4.9 SE 11 19 6 10 1013.1 1013.1 0.0
27/03:30pm 27.8 29.5 20.1 63 5.0 SSE 11 17 6 9 1013.3 1013.3 0.0
27/03:00pm 27.9 30.5 20.5 64 4.9 SSW 7 11 4 6 1013.5 1013.5 0.0
27/02:30pm 27.7 29.9 20.5 65 4.7 SE 9 13 5 7 1013.8 1013.8 0.0
27/02:00pm 28.0 29.9 20.6 64 4.9 SW 11 19 6 10 1014.3 1014.3 0.0
27/01:30pm 28.6 31.5 21.1 64 5.0 SSW 7 17 4 9 1014.7 1014.7 0.0
27/01:00pm 27.5 28.7 19.8 63 5.0 SW 13 17 7 9 1015.2 1015.2 0.0
27/12:30pm 27.5 29.0 19.0 59 5.5 WNW 9 17 5 9 1015.7 1015.7 0.0
27/12:00pm 27.7 30.8 21.5 69 4.1 SSE 7 13 4 7 1016.2 1016.2 0.0
27/11:30am 26.6 28.7 20.2 68 4.2 WSW 9 17 5 9 1016.5 1016.5 0.0
27/11:00am 25.2 26.9 20.2 74 3.2 WSW 11 17 6 9 1016.7 1016.7 0.0
27/10:41am 25.2 27.3 20.2 74 3.3 SW 9 15 5 8 1016.8 1016.8 0.0
27/10:30am 25.1 28.0 20.6 76 2.9 W 6 9 3 5 1016.9 1016.9 0.0
27/10:00am 24.0 26.0 19.9 78 2.6 W 9 17 5 9 1017.0 1017.0 0.0
27/09:30am 23.4 25.2 20.3 83 2.0 WSW 11 15 6 8 1017.0 1017.0 0.0
27/09:00am 23.2 25.6 20.9 87 1.5 WSW 9 15 5 8 1016.8 1016.8 0.0
27/08:30am 22.3 24.5 20.4 89 1.2 WSW 9 13 5 7 1016.7 1016.7 0.0
27/08:00am 21.7 23.3 20.0 90 1.1 WSW 11 17 6 9 1016.3 1016.3 0.0
27/07:30am 21.3 22.9 19.9 92 0.9 WSW 11 17 6 9 1015.8 1015.8 0.0
27/07:21am 21.1 22.3 19.9 93 0.8 W 13 17 7 9 1015.7 1015.7 0.0
27/07:00am 20.9 22.8 19.7 93 0.8 W 9 15 5 8 1015.5 1015.5 0.0
27/06:30am 21.1 22.8 20.1 94 0.6 WSW 11 17 6 9 1015.3 1015.3 0.0
27/06:00am 21.1 23.2 20.1 94 0.6 SW 9 15 5 8 1015.0 1015.0 0.0
27/05:30am 21.0 24.7 20.0 94 0.6 CALM 0 0 0 0 1014.8 1014.8 0.0
27/05:00am 21.2 24.9 20.0 93 0.8 CALM 0 7 0 4 1014.8 1014.8 0.0
27/04:30am 21.5 23.2 20.1 92 0.9 SW 11 15 6 8 1014.7 1014.7 0.0
27/04:00am 21.7 23.2 20.5 93 0.8 SW 13 15 7 8 1014.7 1014.7 0.0
27/03:30am 21.6 23.8 20.4 93 0.8 SW 9 11 5 6 1014.8 1014.8 0.0
27/03:00am 22.3 25.8 21.1 93 0.8 S 4 11 2 6 1015.2 1015.2 0.0
27/02:30am 22.3 25.4 21.1 93 0.8 S 6 9 3 5 1015.4 1015.4 0.0
27/02:00am 22.2 24.6 20.8 92 0.9 SSW 9 13 5 7 1015.7 1015.7 0.0
27/01:30am 22.9 25.3 21.5 92 0.9 SSW 11 15 6 8 1016.0 1016.0 0.0
27/01:00am 23.1 25.9 21.5 91 1.1 S 9 11 5 6 1016.0 1016.0 0.0
27/12:30am 23.2 26.0 21.5 90 1.1 SSW 9 13 5 7 1016.1 1016.1 0.0
27/12:00am 23.4 26.7 21.8 91 1.1 SSW 7 13 4 7 1016.2 1016.2 0.0
 
Date/Time
EDT
Temp
°C
App
Temp
°C
Dew
Point
°C
Rel
Hum
%
Delta-T
°C
Wind Press
QNH
hPa
Press
MSL
hPa
Rain since
9am
mm
Dir  Spd
km/h
Gust
km/h
Spd
kts
Gust
kts
26/11:47pm 23.3 28.0 21.9 92 0.9 CALM 0 0 0 0 1016.3 1016.3 0.0
26/11:30pm 23.5 28.3 22.1 92 0.9 CALM 0 0 0 0 1016.3 1016.3 0.0
26/11:27pm 23.5 28.3 22.1 92 0.9 CALM 0 0 0 0 1016.3 1016.3 0.0
26/11:00pm 23.6 28.3 22.0 91 1.1 CALM 0 0 0 0 1016.4 1016.4 0.0
26/10:30pm 23.6 27.2 22.0 91 1.1 S 6 9 3 5 1016.4 1016.4 0.0
26/10:00pm 24.0 27.1 22.1 89 1.3 S 9 11 5 6 1016.2 1016.2 0.0
26/09:30pm 24.0 27.5 22.1 89 1.3 S 7 9 4 5 1016.0 1016.0 0.0
26/09:00pm 24.5 27.5 22.0 86 1.7 SSE 9 13 5 7 1015.5 1015.5 0.0
26/08:30pm 24.6 27.2 21.9 85 1.8 S 11 15 6 8 1015.1 1015.1 0.0
26/08:00pm 25.1 27.8 21.4 80 2.4 SE 9 11 5 6 1014.6 1014.6 0.0
26/07:30pm 25.5 27.8 21.4 78 2.7 SE 11 15 6 8 1014.2 1014.2 0.0
26/07:00pm 26.1 28.2 21.7 77 2.9 SSE 13 17 7 9 1013.6 1013.6 0.0
26/06:30pm 26.8 29.3 21.8 74 3.3 SSE 11 15 6 8 1012.9 1012.9 0.0
26/06:00pm 27.5 29.3 21.8 71 3.8 S 15 19 8 10 1012.6 1012.6 0.0
26/05:30pm 27.9 30.5 21.9 70 4.0 SSE 11 13 6 7 1012.1 1012.1 0.0
26/05:00pm 28.2 30.9 22.2 70 4.0 SSE 11 15 6 8 1011.8 1011.8 0.0
26/04:30pm 28.6 31.3 22.1 68 4.4 SSE 11 13 6 7 1011.9 1011.9 0.0
26/04:00pm 28.9 31.9 21.9 66 4.7 SSE 9 13 5 7 1011.9 1011.9 0.0
26/03:30pm 28.8 31.9 22.1 67 4.5 S 9 13 5 7 1012.2 1012.2 0.0
26/03:00pm 29.2 33.0 21.7 64 5.0 SW 4 9 2 5 1012.3 1012.3 0.0
26/02:30pm 29.2 31.8 21.2 62 5.3 SW 9 19 5 10 1012.5 1012.5 0.0
26/02:00pm 29.5 32.8 21.4 61 5.4 SW 6 13 3 7 1012.7 1012.7 0.0
26/01:30pm 29.7 33.0 21.9 63 5.3 WSW 7 13 4 7 1013.0 1013.0 0.0
26/01:00pm 28.6 32.0 21.6 66 4.7 NW 6 13 3 7 1013.5 1013.5 0.0
26/12:30pm 27.8 30.8 20.9 66 4.6 W 6 9 3 5 1014.2 1014.2 0.0
26/12:00pm 27.9 30.1 21.2 67 4.5 N 11 17 6 9 1014.4 1014.4 0.0
26/11:30am 27.3 28.6 20.9 68 4.2 N 15 19 8 10 1014.8 1014.8 0.0
26/11:00am 27.0 30.2 20.6 68 4.2 NW 4 11 2 6 1015.3 1015.3 0.0
26/10:30am 25.5 28.2 20.3 73 3.4 NW 6 13 3 7 1015.6 1015.6 0.0
26/10:00am 24.6 28.0 20.9 80 2.4 NNE 4 7 2 4 1015.8 1015.8 0.0
26/09:30am 22.2 24.3 20.1 88 1.4 N 9 11 5 6 1015.7 1015.7 0.0
26/09:00am 21.5 25.1 19.8 90 1.1 CALM 0 0 0 0 1015.7 1015.7 0.4
26/08:30am 20.7 24.4 20.0 96 0.4 CALM 0 0 0 0 1015.3 1015.3 0.4
26/08:00am 19.7 22.7 19.2 97 0.3 N 2 7 1 4 1015.0 1015.0 0.4
26/07:30am 19.0 21.3 18.5 97 0.3 NNE 4 9 2 5 1014.5 1014.5 0.4
26/07:19am 18.9 20.2 18.4 97 0.3 NNE 9 11 5 6 1014.2 1014.2 0.4
26/07:15am 18.9 20.2 18.4 97 0.3 NNE 9 9 5 5 1014.2 1014.2 0.4
26/07:00am 18.8 21.4 18.3 97 0.3 N 2 9 1 5 1014.1 1014.1 0.4
26/06:30am 18.6 19.4 18.1 97 0.3 N 11 13 6 7 1013.8 1013.8 0.4
26/06:00am 18.6 19.4 18.1 97 0.3 N 11 15 6 8 1013.4 1013.4 0.4
26/05:30am 18.4 19.8 17.8 96 0.4 N 7 9 4 5 1013.4 1013.4 0.4
26/05:00am 18.6 19.7 17.9 96 0.4 N 9 11 5 6 1013.3 1013.3 0.4
26/04:30am 18.7 21.5 18.0 96 0.4 CALM 0 0 0 0 1013.5 1013.5 0.4
26/04:00am 19.2 22.2 18.5 96 0.4 CALM 0 0 0 0 1013.4 1013.4 0.4
26/03:55am 19.1 22.1 18.4 96 0.4 CALM 0 6 0 3 1013.4 1013.4 0.4
26/03:47am 19.3 21.2 18.6 96 0.4 NNW 6 7 3 4 1013.4 1013.4 0.4
26/03:30am 19.3 21.0 18.6 96 0.4 N 7 7 4 4 1013.5 1013.5 0.4
26/03:00am 19.7 21.8 19.0 96 0.4 N 6 7 3 4 1013.8 1013.8 0.4
26/02:30am 20.2 22.0 19.5 96 0.4 N 9 11 5 6 1014.0 1014.0 0.4
26/02:00am 20.1 21.8 19.4 96 0.4 NNW 9 9 5 5 1014.3 1014.3 0.4
26/01:30am 20.0 21.7 19.3 96 0.4 N 9 13 5 7 1014.5 1014.5 0.4
26/01:00am 19.9 21.5 19.2 96 0.4 N 9 11 5 6 1015.1 1015.1 0.4
26/12:30am 19.8 21.4 19.1 96 0.4 N 9 11 5 6 1015.5 1015.5 0.4
26/12:00am 19.8 21.0 19.1 96 0.4 N 11 13 6 7 1015.9 1015.9 0.4
 
Date/Time
EDT
Temp
°C
App
Temp
°C
Dew
Point
°C
Rel
Hum
%
Delta-T
°C
Wind Press
QNH
hPa
Press
MSL
hPa
Rain since
9am
mm
Dir  Spd
km/h
Gust
km/h
Spd
kts
Gust
kts
25/11:30pm 19.8 21.0 19.0 95 0.5 N 11 13 6 7 1016.2 1016.2 0.4
25/11:00pm 19.7 21.5 18.7 94 0.6 N 7 9 4 5 1016.2 1016.2 0.4
25/10:30pm 20.2 22.2 19.2 94 0.6 N 7 11 4 6 1016.5 1016.5 0.4
25/10:00pm 20.6 22.4 19.6 94 0.6 N 9 11 5 6 1016.2 1016.2 0.4
25/09:30pm 20.6 24.1 19.6 94 0.6 CALM 0 0 0 0 1016.3 1016.3 0.4
25/09:00pm 20.4 23.6 18.9 91 0.9 CALM 0 0 0 0 1015.9 1015.9 0.4
25/08:30pm 21.3 24.7 19.4 89 1.2 CALM 0 0 0 0 1015.8 1015.8 0.4
25/08:00pm 21.6 25.1 19.5 88 1.3 CALM 0 0 0 0 1015.4 1015.4 0.4
25/07:30pm 22.3 24.5 19.3 83 1.9 ENE 6 9 3 5 1015.2 1015.2 0.4
25/07:00pm 22.7 24.8 19.3 81 2.2 E 7 9 4 5 1015.1 1015.1 0.4
25/06:30pm 23.5 25.2 19.4 78 2.6 ENE 9 13 5 7 1014.9 1014.9 0.4
25/06:00pm 24.7 26.7 20.0 75 3.0 E 9 15 5 8 1014.7 1014.7 0.4
25/05:30pm 24.3 26.3 20.0 77 2.8 ENE 9 13 5 7 1014.6 1014.6 0.4
25/05:00pm 24.2 26.4 20.5 80 2.4 ENE 9 13 5 7 1014.5 1014.5 0.4
25/04:30pm 24.3 26.1 20.4 79 2.5 ENE 11 15 6 8 1014.6 1014.6 0.4
25/04:00pm 24.7 26.2 20.6 78 2.7 SE 13 17 7 9 1014.8 1014.8 0.4
25/03:30pm 25.0 28.3 21.9 83 2.1 N 7 9 4 5 1014.7 1014.7 0.4
25/03:00pm 23.1 25.1 20.8 87 1.5 N 11 13 6 7 1015.2 1015.2 0.4
25/02:30pm 22.8 25.0 21.1 90 1.1 NNW 11 15 6 8 1015.5 1015.5 0.2
25/02:14pm 23.0 24.5 20.5 86 1.6 NE 13 19 7 10 1015.6 1015.6 0.0
25/02:00pm 24.5 26.7 20.4 78 2.7 SSW 9 13 5 7 1015.8 1015.8 0.0
25/01:30pm 24.4 25.8 20.3 78 2.7 S 13 17 7 9 1016.1 1016.1 0.0
25/01:00pm 23.5 23.7 20.6 84 1.9 S 20 26 11 14 1016.5 1016.5 0.0
25/12:30pm 25.1 27.5 22.2 84 1.9 S 13 20 7 11 1017.0 1017.0 0.0
25/12:00pm 22.9 24.8 20.6 87 1.5 S 11 13 6 7 1017.5 1017.5 0.0
25/11:53am 22.9 24.5 20.8 88 1.4 S 13 15 7 8 1017.5 1017.5 0.0
25/11:37am 22.9 24.4 21.2 90 1.1 S 15 19 8 10 1017.7 1017.7 0.0
25/11:30am 23.3 25.2 21.4 89 1.3 SSE 13 17 7 9 1017.8 1017.8 0.0
25/11:04am 23.0 25.0 20.7 87 1.5 S 11 13 6 7 1017.8 1017.8 0.0
25/11:00am 22.8 24.4 20.0 84 1.8 SSE 11 13 6 7 1017.8 1017.8 0.0
25/10:47am 23.2 25.7 20.3 84 1.9 S 7 17 4 9 1017.9 1017.9 0.0
25/10:44am 23.6 27.2 20.5 83 2.0 S 2 17 1 9 1017.9 1017.9 0.0
25/10:30am 22.9 26.3 20.1 84 1.8 S 2 9 1 5 1018.0 1018.0 0.0
25/10:00am 21.9 25.5 19.8 88 1.3 CALM 0 7 0 4 1017.9 1017.9 0.0
25/09:30am 21.3 22.7 19.6 90 1.1 SW 11 13 6 7 1017.8 1017.8 0.0
25/09:00am 20.9 22.3 19.6 92 0.8 SW 11 15 6 8 1017.6 1017.6 8.8
25/08:30am 20.4 22.1 19.4 94 0.6 SW 9 13 5 7 1017.5 1017.5 8.8
25/08:00am 20.3 22.1 19.5 95 0.5 SW 9 13 5 7 1017.3 1017.3 8.6
25/07:30am 20.0 23.3 19.2 95 0.5 CALM 0 0 0 0 1016.9 1016.9 8.6
25/07:23am 19.9 23.2 19.1 95 0.5 CALM 0 0 0 0 1016.8 1016.8 8.6
25/07:06am 19.9 23.2 19.1 95 0.5 CALM 0 0 0 0 1016.7 1016.7 8.6
25/07:00am 19.9 23.2 19.1 95 0.5 CALM 0 0 0 0 1016.7 1016.7 8.6
25/06:30am 19.8 22.3 19.0 95 0.5 SSW 4 7 2 4 1016.7 1016.7 8.6
25/06:00am 19.8 23.0 18.8 94 0.6 CALM 0 6 0 3 1016.4 1016.4 8.6
25/05:30am 19.8 21.7 19.0 95 0.5 SW 7 11 4 6 1016.3 1016.3 8.6
25/05:00am 19.8 21.7 19.0 95 0.5 SSW 7 11 4 6 1016.2 1016.2 8.6
25/04:35am 19.8 21.7 19.0 95 0.5 SW 7 9 4 5 1016.1 1016.1 8.6
25/04:30am 19.8 21.7 19.0 95 0.5 SW 7 11 4 6 1016.1 1016.1 8.6
25/04:18am 19.8 21.7 19.0 95 0.5 SW 7 9 4 5 1016.1 1016.1 8.6
25/04:00am 19.8 21.7 19.0 95 0.5 SW 7 9 4 5 1016.2 1016.2 8.6
25/03:30am 19.7 21.1 18.7 94 0.6 SW 9 15 5 8 1016.5 1016.5 8.6
25/03:00am 19.7 20.4 18.9 95 0.5 WSW 13 17 7 9 1016.6 1016.6 8.6
25/02:30am 19.8 21.3 19.0 95 0.5 WSW 9 15 5 8 1016.9 1016.9 8.6
25/02:00am 19.9 21.9 19.1 95 0.5 SW 7 11 4 6 1017.3 1017.3 8.6
25/01:39am 19.9 21.5 19.2 96 0.4 SSW 9 17 5 9 1017.7 1017.7 8.4
25/01:30am 19.9 20.8 19.2 96 0.4 SSW 13 17 7 9 1017.7 1017.7 8.4
25/01:00am 20.0 21.6 19.2 95 0.5 SSW 9 11 5 6 1017.8 1017.8 8.2
25/12:58am 20.0 21.6 19.2 95 0.5 SSW 9 11 5 6 1017.9 1017.9 8.2
25/12:30am 19.9 21.1 19.1 95 0.5 SSW 11 15 6 8 1018.0 1018.0 8.2
25/12:25am 19.9 21.1 19.1 95 0.5 SSW 11 15 6 8 1018.0 1018.0 8.2
25/12:00am 19.9 20.7 19.1 95 0.5 SSW 13 19 7 10 1018.2 1018.2 8.2
 
Date/Time
EDT
Temp
°C
App
Temp
°C
Dew
Point
°C
Rel
Hum
%
Delta-T
°C
Wind Press
QNH
hPa
Press
MSL
hPa
Rain since
9am
mm
Dir  Spd
km/h
Gust
km/h
Spd
kts
Gust
kts
24/11:41pm 20.0 20.5 19.2 95 0.5 SW 15 20 8 11 1018.2 1018.2 8.0
24/11:35pm 20.0 20.5 19.2 95 0.5 SW 15 19 8 10 1018.1 1018.1 7.8
24/11:30pm 20.1 21.0 19.3 95 0.5 SW 13 20 7 11 1018.1 1018.1 7.8

Other Formats:

Comma delimited format used in spreadsheet applications
http://www.bom.gov.au/fwo/IDN60801/IDN60801.94572.axf

JavaScript Object Notation format (JSON) in row-major order
http://www.bom.gov.au/fwo/IDN60801/IDN60801.94572.json